Pacific Fantasy — A8MV6 — position and weather

sailwx.info

Track history (hours):
 
Tides and Currents Weather Stations Pressure Air Temp Water Temp Dewpoint Dewpoint Depression Visibility Wind Speed Wind Dir Waves Ship Positions

Pacific Fantasy

Last reported at 2014-Jul-19 01:33 UTC. Time now 2014-Jul-23 03:17 UTC.
Position N 39°06' W 030°34'.

Length 180 m; draft 6.5 m.

Type: Cargo ship. MMSI: 636013744.

Date/timePositionNaut miles runAvg speedWind from/ knotsBaromVisibWave heightAir tempDewpointWater temp
2014-Jul-19 01:33N 39°06' W 030°34'1111.3
2014-Jul-19 00:33N 39°09' W 030°20'1111.2
2014-Jul-18 23:33N 39°12' W 030°06'1110.9
2014-Jul-18 22:33N 39°16' W 029°52'1111.0
2014-Jul-18 21:33N 39°19' W 029°39'1110.7
2014-Jul-18 20:33N 39°22' W 029°25'1110.6
2014-Jul-18 19:33N 39°25' W 029°12'1110.9
2014-Jul-18 18:33N 39°28' W 028°59'1111.0
2014-Jul-18 17:33N 39°31' W 028°45'1110.9
2014-Jul-18 16:33N 39°34' W 028°31'1110.7
2014-Jul-18 15:34N 39°37' W 028°18'1110.6
2014-Jul-18 14:33N 39°40' W 028°05'1210.7
2014-Jul-18 13:28N 39°43' W 027°50'1110.7
2014-Jul-18 12:28N 39°46' W 027°37'  
2014-Jul-14 03:32N 43°38' W 006°01'281 7.6
2014-Jul-12 14:29N 39°54' W 009°50'59 9.9
2014-Jul-12 08:32N 38°56' W 009°52'1010.0
2014-Jul-12 07:33N 38°46' W 009°51'9 9.2
2014-Jul-12 06:33N 38°37' W 009°47'1010.2
2014-Jul-12 05:33N 38°32' W 009°36'1110.7
2014-Jul-12 04:32N 38°27' W 009°24'1111.3
2014-Jul-12 03:33N 38°22' W 009°11'1110.7
2014-Jul-12 02:33N 38°27' W 008°58'7 6.5
2014-Jul-12 01:33N 38°30' W 008°51'1 0.4
2014-Jul-12 00:20N 38°30' W 008°51'0 0.0
2014-Jul-11 23:32N 38°30' W 008°51'0 0.0
2014-Jul-11 22:23N 38°30' W 008°51'0 0.0
2014-Jul-11 21:32N 38°30' W 008°51'0 0.0
2014-Jul-11 20:29N 38°30' W 008°51'0 0.0
2014-Jul-11 19:32N 38°30' W 008°51'0 0.0
2014-Jul-11 18:32N 38°30' W 008°51'0 0.0
2014-Jul-11 17:32N 38°30' W 008°51'0 0.0
2014-Jul-11 16:32N 38°30' W 008°51'0 0.0
2014-Jul-11 15:32N 38°30' W 008°51'0 0.0
2014-Jul-11 14:29N 38°30' W 008°51'0 0.0
2014-Jul-11 13:32N 38°30' W 008°51'0 0.0
2014-Jul-11 12:32N 38°30' W 008°51'0 0.0
2014-Jul-11 11:32N 38°30' W 008°51'0 0.0
2014-Jul-11 10:26N 38°30' W 008°51'0 0.0
2014-Jul-11 09:32N 38°30' W 008°51'0 0.0
2014-Jul-11 08:32N 38°30' W 008°51'0 0.0
2014-Jul-11 07:32N 38°30' W 008°51'0 0.1
2014-Jul-11 06:33N 38°30' W 008°51'5 5.2
2014-Jul-11 05:33N 38°28' W 008°57'7 7.4
2014-Jul-11 04:33N 38°21' W 008°60'2 1.7
2014-Jul-11 03:33N 38°20' W 009°00'2 1.6
2014-Jul-11 02:33N 38°21' W 008°59'1 1.0
2014-Jul-11 01:33N 38°22' W 008°59'0 0.1
2014-Jul-11 00:33N 38°22' W 008°59'1 0.9
2014-Jul-10 23:33N 38°23' W 008°59'1 0.8
2014-Jul-10 22:33N 38°23' W 008°58'2 1.6
2014-Jul-10 21:33N 38°22' W 008°56'1 1.0
2014-Jul-10 20:33N 38°21' W 008°56'1 1.2
2014-Jul-10 19:33N 38°20' W 008°57'3 3.2
2014-Jul-10 18:33N 38°16' W 008°57'0 0.3
2014-Jul-10 17:33N 38°16' W 008°57'1 1.0
2014-Jul-10 16:33N 38°17' W 008°58'1 0.8
2014-Jul-10 15:33N 38°18' W 008°59'1 0.8
2014-Jul-10 14:33N 38°18' W 008°59'1 0.6
2014-Jul-10 13:33N 38°18' W 009°00'1 0.9
2014-Jul-10 12:33N 38°17' W 009°00'1 0.9
2014-Jul-10 11:34N 38°16' W 009°00'1 0.5
2014-Jul-10 10:33N 38°17' W 009°00'0 0.3
2014-Jul-10 09:34N 38°17' W 009°00'1 1.0
2014-Jul-10 08:33N 38°16' W 008°59'1 1.0
2014-Jul-10 07:33N 38°17' W 008°60'1 1.0
2014-Jul-10 06:34N 38°18' W 008°60'1 0.7
2014-Jul-10 05:33N 38°19' W 009°00'0 0.5
2014-Jul-10 04:34N 38°19' W 009°01'0 0.2
2014-Jul-10 03:33N 38°19' W 009°01'0 0.5
2014-Jul-10 02:33N 38°19' W 009°02'1 0.6
2014-Jul-10 01:33N 38°20' W 009°02'1 1.5
2014-Jul-10 00:33N 38°18' W 009°02'0 0.2
2014-Jul-09 23:33N 38°18' W 009°02'1 0.6
2014-Jul-09 22:33N 38°17' W 009°01'2 2.0
2014-Jul-09 21:33N 38°16' W 008°59'1 1.0
2014-Jul-09 20:33N 38°17' W 008°58'1 1.3
2014-Jul-09 19:33N 38°16' W 008°56'1 1.0
2014-Jul-09 18:33N 38°17' W 008°56'1 1.0
2014-Jul-09 17:33N 38°18' W 008°57'1 1.1
2014-Jul-09 16:33N 38°19' W 008°57'1 1.1
2014-Jul-09 15:33N 38°20' W 008°56'1 0.7
2014-Jul-09 14:33N 38°20' W 008°57'1 0.8
2014-Jul-09 13:33N 38°19' W 008°57'1 0.7
2014-Jul-09 12:33N 38°20' W 008°58'1 0.9
2014-Jul-09 11:33N 38°21' W 008°58'1 1.0
2014-Jul-09 10:33N 38°22' W 008°58'1 0.7
2014-Jul-09 09:33N 38°21' W 008°58'1 0.7
2014-Jul-09 08:33N 38°21' W 008°59'1 0.6
2014-Jul-09 07:33N 38°20' W 008°59'1 0.9
2014-Jul-09 06:33N 38°20' W 008°60'1 1.1
2014-Jul-09 05:33N 38°19' W 009°00'1 1.1
2014-Jul-09 04:34N 38°18' W 009°01'1 0.6
2014-Jul-09 03:33N 38°17' W 009°01'0 0.3
2014-Jul-09 02:34N 38°17' W 009°01'  
Track history (hours):
 
Tides and Currents Weather Stations Pressure Air Temp Water Temp Dewpoint Dewpoint Depression Visibility Wind Speed Wind Dir Waves Ship Positions

Pacific Fantasy

Last reported at 2014-Jul-19 01:33 UTC. Time now 2014-Jul-23 03:17 UTC.
Position N 39°06' W 030°34'.

Length 180 m; draft 6.5 m.

Type: Cargo ship. MMSI: 636013744.

Date/timePositionNaut miles runAvg speedWind from/ knotsBaromVisibWave heightAir tempDewpointWater temp
2014-Jul-19 01:33N 39°06' W 030°34'1111.3
2014-Jul-19 00:33N 39°09' W 030°20'1111.2
2014-Jul-18 23:33N 39°12' W 030°06'1110.9
2014-Jul-18 22:33N 39°16' W 029°52'1111.0
2014-Jul-18 21:33N 39°19' W 029°39'1110.7
2014-Jul-18 20:33N 39°22' W 029°25'1110.6
2014-Jul-18 19:33N 39°25' W 029°12'1110.9
2014-Jul-18 18:33N 39°28' W 028°59'1111.0
2014-Jul-18 17:33N 39°31' W 028°45'1110.9
2014-Jul-18 16:33N 39°34' W 028°31'1110.7
2014-Jul-18 15:34N 39°37' W 028°18'1110.6
2014-Jul-18 14:33N 39°40' W 028°05'1210.7
2014-Jul-18 13:28N 39°43' W 027°50'1110.7
2014-Jul-18 12:28N 39°46' W 027°37'  
2014-Jul-14 03:32N 43°38' W 006°01'281 7.6
2014-Jul-12 14:29N 39°54' W 009°50'59 9.9
2014-Jul-12 08:32N 38°56' W 009°52'1010.0
2014-Jul-12 07:33N 38°46' W 009°51'9 9.2
2014-Jul-12 06:33N 38°37' W 009°47'1010.2
2014-Jul-12 05:33N 38°32' W 009°36'1110.7
2014-Jul-12 04:32N 38°27' W 009°24'1111.3
2014-Jul-12 03:33N 38°22' W 009°11'1110.7
2014-Jul-12 02:33N 38°27' W 008°58'7 6.5
2014-Jul-12 01:33N 38°30' W 008°51'1 0.4
2014-Jul-12 00:20N 38°30' W 008°51'0 0.0
2014-Jul-11 23:32N 38°30' W 008°51'0 0.0
2014-Jul-11 22:23N 38°30' W 008°51'0 0.0
2014-Jul-11 21:32N 38°30' W 008°51'0 0.0
2014-Jul-11 20:29N 38°30' W 008°51'0 0.0
2014-Jul-11 19:32N 38°30' W 008°51'0 0.0
2014-Jul-11 18:32N 38°30' W 008°51'0 0.0
2014-Jul-11 17:32N 38°30' W 008°51'0 0.0
2014-Jul-11 16:32N 38°30' W 008°51'0 0.0
2014-Jul-11 15:32N 38°30' W 008°51'0 0.0
2014-Jul-11 14:29N 38°30' W 008°51'0 0.0
2014-Jul-11 13:32N 38°30' W 008°51'0 0.0
2014-Jul-11 12:32N 38°30' W 008°51'0 0.0
2014-Jul-11 11:32N 38°30' W 008°51'0 0.0
2014-Jul-11 10:26N 38°30' W 008°51'0 0.0
2014-Jul-11 09:32N 38°30' W 008°51'0 0.0
2014-Jul-11 08:32N 38°30' W 008°51'0 0.0
2014-Jul-11 07:32N 38°30' W 008°51'0 0.1
2014-Jul-11 06:33N 38°30' W 008°51'5 5.2
2014-Jul-11 05:33N 38°28' W 008°57'7 7.4
2014-Jul-11 04:33N 38°21' W 008°60'2 1.7
2014-Jul-11 03:33N 38°20' W 009°00'2 1.6
2014-Jul-11 02:33N 38°21' W 008°59'1 1.0
2014-Jul-11 01:33N 38°22' W 008°59'0 0.1
2014-Jul-11 00:33N 38°22' W 008°59'1 0.9
2014-Jul-10 23:33N 38°23' W 008°59'1 0.8
2014-Jul-10 22:33N 38°23' W 008°58'2 1.6
2014-Jul-10 21:33N 38°22' W 008°56'1 1.0
2014-Jul-10 20:33N 38°21' W 008°56'1 1.2
2014-Jul-10 19:33N 38°20' W 008°57'3 3.2
2014-Jul-10 18:33N 38°16' W 008°57'0 0.3
2014-Jul-10 17:33N 38°16' W 008°57'1 1.0
2014-Jul-10 16:33N 38°17' W 008°58'1 0.8
2014-Jul-10 15:33N 38°18' W 008°59'1 0.8
2014-Jul-10 14:33N 38°18' W 008°59'1 0.6
2014-Jul-10 13:33N 38°18' W 009°00'1 0.9
2014-Jul-10 12:33N 38°17' W 009°00'1 0.9
2014-Jul-10 11:34N 38°16' W 009°00'1 0.5
2014-Jul-10 10:33N 38°17' W 009°00'0 0.3
2014-Jul-10 09:34N 38°17' W 009°00'1 1.0
2014-Jul-10 08:33N 38°16' W 008°59'1 1.0
2014-Jul-10 07:33N 38°17' W 008°60'1 1.0
2014-Jul-10 06:34N 38°18' W 008°60'1 0.7
2014-Jul-10 05:33N 38°19' W 009°00'0 0.5
2014-Jul-10 04:34N 38°19' W 009°01'0 0.2
2014-Jul-10 03:33N 38°19' W 009°01'0 0.5
2014-Jul-10 02:33N 38°19' W 009°02'1 0.6
2014-Jul-10 01:33N 38°20' W 009°02'1 1.5
2014-Jul-10 00:33N 38°18' W 009°02'0 0.2
2014-Jul-09 23:33N 38°18' W 009°02'1 0.6
2014-Jul-09 22:33N 38°17' W 009°01'2 2.0
2014-Jul-09 21:33N 38°16' W 008°59'1 1.0
2014-Jul-09 20:33N 38°17' W 008°58'1 1.3
2014-Jul-09 19:33N 38°16' W 008°56'1 1.0
2014-Jul-09 18:33N 38°17' W 008°56'1 1.0
2014-Jul-09 17:33N 38°18' W 008°57'1 1.1
2014-Jul-09 16:33N 38°19' W 008°57'1 1.1
2014-Jul-09 15:33N 38°20' W 008°56'1 0.7
2014-Jul-09 14:33N 38°20' W 008°57'1 0.8
2014-Jul-09 13:33N 38°19' W 008°57'1 0.7
2014-Jul-09 12:33N 38°20' W 008°58'1 0.9
2014-Jul-09 11:33N 38°21' W 008°58'1 1.0
2014-Jul-09 10:33N 38°22' W 008°58'1 0.7
2014-Jul-09 09:33N 38°21' W 008°58'1 0.7
2014-Jul-09 08:33N 38°21' W 008°59'1 0.6
2014-Jul-09 07:33N 38°20' W 008°59'1 0.9
2014-Jul-09 06:33N 38°20' W 008°60'1 1.1
2014-Jul-09 05:33N 38°19' W 009°00'1 1.1
2014-Jul-09 04:34N 38°18' W 009°01'1 0.6
2014-Jul-09 03:33N 38°17' W 009°01'0 0.3
2014-Jul-09 02:34N 38°17' W 009°01'  

Dump ship's entire track history